Hovedside
METAR-TAF:

METAR-TAF

Lufthavner :

Bergen lufthavn. Flesland

Bergen, Norge

breddegrad: 60-17N, lengdegrad: 005-14E, høyde over havet: 5 m

Gjeldene værobservasjon

Denne rapporten ble laget for 19 minutter siden, klokken 18:50 UTC
Vind 12 kt fra Sør
Temperatur 14°C
Luftfuktighet 58%
Trykk 1024 hPa
Sikt 10 km eller mer
ingen skyer under 1500 m og ingen bygeskyer

METAR: ENBR 201850Z 19012KT CAVOK 14/06 Q1024 NOSIG RMK WIND 1200FT 17025KT

Tid: 21:09 (19:09 UTC)

Varsel

Varsel gyldig fra 20. klokken 18 UTC til 21. klokken 18 UTC
Vind 15 kt fra Sør
Sikt 10 km eller mer
Få skyer i en høyde av 3000 ft
Midlertidig
fra 20. klokken 21 UTC til 21. klokken 06 UTC
Vind 5 kt fra skiftende retning

TAF: ENBR 2018/2118 19015KT 9999 FEW030 TEMPO 2021/2106 VRB05KT

Værobservasjoner og værvarsel for over 4000 flyplasser (METAR- og TAF-rapporter).

Tilgjengelige stasjoner er representert av de røde og gule prikkene på kartet.

Hold musepekeren over prikken for å se navnet på stasjonen.

Klikk så for å se værobservasjoner og -varsler.

For å forandre kartet kan du klikke på den grønne knappen med svart kryss for å zoome inn, på den grønne knappen med strek for å zoome ut, eller på de grønne pilene for å se tilstøtende kart.


METAR-TAF: